Главная страница
METAR-TAF:

METAR-TAF

Аэропорты :

Wheeling - Ohio County Airport

Уилинг, Западная Виргиния, США

широта: 40-10-13N, долгота: 080-38-40W, высота над уровнем моря: 364 м

Текущие метеонаблюдения

Эта сводка был подготовлена 1 час и 4 минут назад, в 01:53 UTC
Ветер 6 Узел от западный
Температура -7°C
Влажность 67%
Давление 1027 hPa
Видимость: 16.1 км
ясное небо

METAR: KHLG 130153Z 28006KT 10SM CLR M07/M12 A3032 RMK AO2 SLP287 T10721122 $

Время: 21:57 (02:57 UTC)

Прогноз

Эта сводка был подготовлена 3 часа и 17 минут назад, в 23:40 UTC
Прогноз действительный с 13-го 00 UTC до 13-го 24 UTC
Ветер 6 Узел от западный
Видимость: 10 км
Отдельные облака на высоте 10000 фута
С 13-го 1200 UTC
Ветер 4 Узел от западный-юго-западный
Видимость: 10 км
Рассеянная облачность на высоте 25000 фута
С 13-го 1800 UTC
Ветер 5 Узел от южный
Видимость: 10 км
Рассеянная облачность на высоте 20000 фута

TAF: KHLG 122340Z 1300/1324 28006KT P6SM SCT100 FM131200 24004KT P6SM BKN250 FM131800 18005KT P6SM BKN200

Метеонаблюдения и прогнозы для более 4000 аэропортов (сводки METAR и TAF).

Имеющиеся станции представлены на карте желтыми и красными точками.

Чтобы увидеть название станции, наведите на нее мышь.

Затем щелкните, чтобы увидеть метеонаблюдения и метеопрогнозы.

Управление картой: чтобы увеличить масштаб, щелкните зеленые кнопки с черным крестиком; чтобы уменьшить масштаб, щелкните зеленую кнопку с тире; для просмотра соседних карт щелкайте зеленые стрелки.


METAR-TAF: